aviador You're here:

KDAN Decoded Metar

DANVILLE in VA, USA
Report Time2018-02-18 16:53:00
UTC Time2018-02-18 17:54:29
Flight Rules vfr VFR
WindVRB at 05 kt
Visibility9999 m
Phenomena:N/A
Clouds:N/A
Expected CloudBase > 4,400 ft AGL from Temp-Dew spread
CeilingNone
Temp12°C (ISA -2)
Dew Point01°C (47% RH)
AAT8.4°C
QNH1029 hPa
Density Alt-92 ft
Elevation574 ft
Report Wrong Elevation
Raw Report
METAR KDAN 181653Z AUTO VRB05KT 10SM CLR 12/01 A3038 RMK AO2 SLP284
T01170011 $=

Extra information for KDAN:More info

Metar Taf Metar & Taf Last 4 Metars F.Rules Stats Wind Profile Meteogram Temp Stats Airport Information Weather charts Add Link Nearby VenuesMetar ALERT Operation Metar Decoded Social comments

AIRNAV info for KDAN